Time;durP1;ratioP1;P1;durP2;ratioP2;P2;SDS_P1;SDS_P2;PMS_P1;PMS_P2;Temp;Humidity;BMP_temperature;BMP_pressure;BME280_temperature;BME280_humidity;BME280_pressure;Samples;Min_cycle;Max_cycle;Signal;HPM_P1;HPM_P2
2021/03/09 00:40:04;;;;;;;10.77;4.57;;;2.40;57.60;;;;;;2373389;58;20974;-80
2021/03/09 00:49:36;;;;;;;;;;;;;;;;;;;;;
2021/03/09 00:53:25;;;;;;;;;;;;;;;;;;;;;
2021/03/09 00:56:48;;;;;;;9.32;4.12;;;2.00;57.10;;;;;;2121968;60;21013;-80
2021/03/09 00:59:20;;;;;;;11.15;5.50;;;2.00;57.20;;;;;;2310582;59;21066;-81
2021/03/09 01:01:52;;;;;;;;;;;1.90;57.30;;;;;;2316746;59;21106;-81
2021/03/09 01:04:29;;;;;;;7.80;4.25;;;1.90;57.00;;;;;;2316802;59;20184;-81
2021/03/09 01:07:12;;;;;;;13.27;5.78;;;1.90;57.20;;;;;;2316760;59;21101;-81
2021/03/09 02:05:51;;;;;;;;;;;;;;;;;;;;;
2021/03/09 02:08:45;;;;;;;10.32;4.57;;;1.60;57.10;;;;;;2558072;53;22577;-69
2021/03/09 02:11:37;;;;;;;9.75;4.15;;;1.30;57.30;;;;;;2579587;53;20992;-70
2021/03/09 02:17:18;;;;;;;12.48;5.35;;;1.50;57.60;;;;;;2333118;53;21002;-68
2021/03/09 02:23:35;;;;;;;10.40;4.72;;;1.40;57.30;;;;;;2368415;53;20910;-71
2021/03/09 02:27:52;;;;;;;11.63;4.82;;;1.40;57.60;;;;;;2367722;54;21529;-71
2021/03/09 02:30:27;;;;;;;9.50;4.43;;;1.40;57.40;;;;;;2332386;54;20958;-72
2021/03/09 02:33:09;;;;;;;8.68;3.83;;;1.40;57.70;;;;;;2336611;53;21008;-67
2021/03/09 02:35:41;;;;;;;8.60;4.25;;;1.40;57.80;;;;;;2329316;53;20958;-72
2021/03/09 02:38:09;;;;;;;9.23;4.22;;;1.40;58.10;;;;;;2586443;53;21036;-69
2021/03/09 02:40:35;;;;;;;10.10;4.75;;;1.40;57.90;;;;;;2341373;54;20919;-68
2021/03/09 02:43:05;;;;;;;9.65;4.82;;;1.40;58.00;;;;;;2564376;53;20906;-71
2021/03/09 02:45:31;;;;;;;10.32;4.80;;;1.40;58.00;;;;;;2341845;54;20933;-71
2021/03/09 02:47:59;;;;;;;10.45;4.60;;;1.40;58.00;;;;;;2342354;54;20993;-68
2021/03/09 02:50:26;;;;;;;10.60;4.82;;;1.40;58.00;;;;;;2328096;53;20990;-69
2021/03/09 02:52:55;;;;;;;10.20;4.90;;;1.40;58.00;;;;;;2584737;52;21049;-69
2021/03/09 02:55:21;;;;;;;10.32;5.00;;;1.40;58.10;;;;;;2331430;54;20939;-68
2021/03/09 02:57:48;;;;;;;8.27;4.47;;;1.40;58.10;;;;;;2324982;54;21023;-71
2021/03/09 03:00:15;;;;;;;8.27;4.32;;;1.40;58.10;;;;;;2590678;52;20953;-66
2021/03/09 03:02:41;;;;;;;10.43;5.07;;;1.40;58.00;;;;;;2592505;53;21253;-71
2021/03/09 03:05:09;;;;;;;9.63;4.90;;;1.40;58.00;;;;;;2345620;54;20966;-68
2021/03/09 03:07:36;;;;;;;9.93;4.95;;;1.40;58.00;;;;;;2592679;52;21422;-70
2021/03/09 03:10:03;;;;;;;9.48;4.97;;;1.40;58.00;;;;;;2581624;52;20948;-70
2021/03/09 03:12:31;;;;;;;11.02;5.45;;;1.40;58.10;;;;;;2344629;53;21014;-69
2021/03/09 03:15:00;;;;;;;11.73;5.30;;;1.40;58.10;;;;;;2586292;53;21760;-70
2021/03/09 03:17:27;;;;;;;11.15;4.75;;;1.40;58.10;;;;;;2346586;53;21790;-70
2021/03/09 03:19:53;;;;;;;9.95;4.72;;;1.40;58.10;;;;;;2353568;53;20937;-69
2021/03/09 03:22:19;;;;;;;8.55;4.75;;;1.40;58.10;;;;;;2595793;52;20897;-70
2021/03/09 03:24:46;;;;;;;8.43;4.75;;;1.40;58.10;;;;;;2625435;52;20970;-69
2021/03/09 03:27:18;;;;;;;9.55;4.30;;;1.40;58.20;;;;;;2362055;53;20928;-70
2021/03/09 03:29:48;;;;;;;10.20;4.55;;;1.40;58.20;;;;;;2365498;53;21009;-70
2021/03/09 03:32:17;;;;;;;11.50;5.07;;;1.30;58.00;;;;;;2625823;52;21005;-70
2021/03/09 03:34:46;;;;;;;10.30;5.03;;;1.40;58.10;;;;;;2625638;52;20930;-70
2021/03/09 03:37:15;;;;;;;10.48;4.87;;;1.40;58.10;;;;;;2373875;54;20970;-70
2021/03/09 03:39:41;;;;;;;11.45;5.40;;;1.40;58.10;;;;;;2360204;53;20986;-68
2021/03/09 03:42:08;;;;;;;9.07;4.93;;;1.30;58.00;;;;;;2607042;52;20974;-70
2021/03/09 03:44:34;;;;;;;8.73;4.65;;;1.30;58.00;;;;;;2603301;52;20945;-68
2021/03/09 03:47:01;;;;;;;9.18;4.68;;;1.40;58.10;;;;;;2605255;52;20925;-68
2021/03/09 03:49:28;;;;;;;11.05;4.60;;;1.30;58.10;;;;;;2361424;53;20930;-72
2021/03/09 03:52:19;;;;;;;9.40;4.65;;;1.30;58.00;;;;;;2372697;53;20990;-70
2021/03/09 03:55:02;;;;;;;9.88;5.03;;;1.30;58.00;;;;;;2352392;53;21441;-72
2021/03/09 03:57:36;;;;;;;9.57;5.12;;;1.30;58.00;;;;;;2597739;52;20942;-69
2021/03/09 04:00:03;;;;;;;11.02;5.40;;;1.30;58.00;;;;;;2611132;52;20921;-68
2021/03/09 04:02:30;;;;;;;11.50;4.55;;;1.20;57.90;;;;;;2598249;52;21461;-69
2021/03/09 04:04:56;;;;;;;10.57;5.12;;;1.30;58.00;;;;;;2612063;52;21730;-67
2021/03/09 04:07:25;;;;;;;7.70;3.90;;;1.20;58.00;;;;;;2372633;53;20946;-68
2021/03/09 04:09:52;;;;;;;10.00;4.35;;;1.20;58.00;;;;;;2621200;52;21028;-67
2021/03/09 04:12:20;;;;;;;10.95;4.95;;;1.20;58.00;;;;;;2354126;53;21053;-66
2021/03/09 04:14:46;;;;;;;10.15;5.15;;;1.20;58.00;;;;;;2625298;52;21057;-69
2021/03/09 04:17:13;;;;;;;8.98;4.25;;;1.20;58.00;;;;;;2372913;54;20953;-70
2021/03/09 04:19:39;;;;;;;9.55;4.37;;;1.20;58.00;;;;;;2373203;53;21049;-72
2021/03/09 04:22:06;;;;;;;8.38;4.65;;;1.20;58.00;;;;;;2373178;53;20914;-67
2021/03/09 04:24:32;;;;;;;9.00;4.45;;;1.10;57.90;;;;;;2626092;52;21010;-68
2021/03/09 04:26:59;;;;;;;11.55;4.68;;;1.10;57.90;;;;;;2365691;54;22200;-67
2021/03/09 04:29:25;;;;;;;9.02;4.60;;;1.10;57.90;;;;;;2577947;53;21004;-70
2021/03/09 04:31:51;;;;;;;11.82;4.68;;;1.10;58.00;;;;;;2353412;53;20926;-68
2021/03/09 04:34:18;;;;;;;10.10;4.93;;;1.10;58.00;;;;;;2372320;54;20946;-70
2021/03/09 04:36:44;;;;;;;10.18;5.10;;;1.10;58.60;;;;;;2372952;54;21826;-72
2021/03/09 04:39:10;;;;;;;9.57;4.82;;;1.10;58.10;;;;;;2374744;54;20934;-69
2021/03/09 04:41:37;;;;;;;9.05;4.40;;;1.10;58.00;;;;;;2351189;53;21080;-67
2021/03/09 04:44:04;;;;;;;9.95;5.45;;;1.10;58.00;;;;;;2370498;53;20988;-69
2021/03/09 04:46:30;;;;;;;10.50;4.97;;;1.10;58.10;;;;;;2352203;53;21472;-67
2021/03/09 04:48:57;;;;;;;8.20;4.07;;;1.10;58.20;;;;;;2366564;53;20918;-72
2021/03/09 04:51:23;;;;;;;9.55;5.15;;;1.10;58.20;;;;;;2597103;52;21453;-71
2021/03/09 04:53:52;;;;;;;12.07;6.25;;;1.00;58.10;;;;;;2625449;52;20910;-69
2021/03/09 04:56:19;;;;;;;10.15;4.78;;;1.10;58.30;;;;;;2364113;53;20968;-70
2021/03/09 04:58:45;;;;;;;10.05;4.20;;;1.00;58.20;;;;;;2365600;53;20993;-69
2021/03/09 05:01:11;;;;;;;9.70;4.62;;;1.00;58.10;;;;;;2352077;53;20994;-68
2021/03/09 05:03:38;;;;;;;10.32;4.80;;;1.10;58.20;;;;;;2372856;54;21001;-70
2021/03/09 05:06:06;;;;;;;10.50;5.10;;;1.00;58.10;;;;;;2370713;54;21000;-69
2021/03/09 05:08:32;;;;;;;10.27;4.70;;;1.00;58.10;;;;;;2349526;53;20961;-71
2021/03/09 05:10:58;;;;;;;10.70;4.80;;;1.00;58.10;;;;;;2345659;53;20936;-69
2021/03/09 05:13:25;;;;;;;9.13;4.55;;;1.00;58.10;;;;;;2610003;52;20986;-70
2021/03/09 05:15:51;;;;;;;11.57;5.20;;;1.00;58.10;;;;;;2372412;53;21061;-70
2021/03/09 05:18:18;;;;;;;11.10;5.32;;;1.00;58.10;;;;;;2355040;53;21453;-69
2021/03/09 05:20:44;;;;;;;11.07;5.45;;;1.00;58.10;;;;;;2357005;53;20996;-70
2021/03/09 05:23:14;;;;;;;10.82;5.62;;;1.00;58.10;;;;;;2607159;52;20898;-69
2021/03/09 05:25:40;;;;;;;11.38;5.12;;;1.00;58.20;;;;;;2608944;52;20991;-70
2021/03/09 05:28:06;;;;;;;11.20;5.62;;;1.00;58.20;;;;;;2362161;53;20941;-68
2021/03/09 05:30:33;;;;;;;12.07;6.15;;;1.00;58.30;;;;;;2564270;53;20993;-72
2021/03/09 05:33:00;;;;;;;14.00;6.15;;;1.00;58.30;;;;;;2359595;53;20926;-71
2021/03/09 05:35:26;;;;;;;9.27;5.32;;;1.00;58.30;;;;;;2365845;53;21033;-71
2021/03/09 05:37:53;;;;;;;11.18;5.55;;;1.00;58.30;;;;;;2372434;53;20966;-71
2021/03/09 05:40:19;;;;;;;9.60;4.87;;;1.00;58.30;;;;;;2373055;53;21005;-71
2021/03/09 05:42:50;;;;;;;10.55;5.37;;;1.00;58.30;;;;;;2372501;54;20958;-70
2021/03/09 05:45:16;;;;;;;9.48;4.93;;;0.90;58.20;;;;;;2375516;54;20977;-69
2021/03/09 05:47:42;;;;;;;11.43;5.45;;;1.00;58.30;;;;;;2597551;52;20967;-69
2021/03/09 05:50:09;;;;;;;10.07;5.68;;;0.90;58.30;;;;;;2591192;53;20949;-69
2021/03/09 05:52:35;;;;;;;11.43;5.70;;;0.90;58.30;;;;;;2364798;53;20913;-68
2021/03/09 05:55:06;;;;;;;12.13;5.30;;;0.90;58.30;;;;;;2596453;52;21726;-71
2021/03/09 05:57:32;;;;;;;9.82;5.07;;;0.90;58.30;;;;;;2620380;52;21040;-69
2021/03/09 06:00:00;;;;;;;11.15;5.55;;;0.90;58.30;;;;;;2353942;53;21004;-70
2021/03/09 06:02:28;;;;;;;10.40;5.35;;;0.90;58.40;;;;;;2361058;54;20973;-70
2021/03/09 06:04:58;;;;;;;11.00;5.05;;;0.90;58.40;;;;;;2364768;53;20941;-69
2021/03/09 06:07:24;;;;;;;9.20;4.35;;;0.90;58.50;;;;;;2360072;53;22027;-68
2021/03/09 06:09:51;;;;;;;10.77;4.93;;;0.90;58.50;;;;;;2613898;52;21014;-69
2021/03/09 06:12:26;;;;;;;13.60;5.97;;;0.90;58.60;;;;;;2373001;54;20989;-71
2021/03/09 06:15:00;;;;;;;14.87;6.20;;;1.00;58.70;;;;;;2372441;54;20937;-71
2021/03/09 06:17:45;;;;;;;15.40;6.40;;;1.00;58.70;;;;;;2361877;53;20937;-69
2021/03/09 06:20:32;;;;;;;17.70;8.05;;;1.00;58.80;;;;;;2368176;53;21820;-67
2021/03/09 06:22:59;;;;;;;26.90;9.93;;;1.00;58.80;;;;;;2625701;52;20965;-69
2021/03/09 06:25:29;;;;;;;35.03;12.68;;;1.00;58.90;;;;;;2626028;52;20913;-70
2021/03/09 06:28:06;;;;;;;52.22;16.70;;;1.10;59.10;;;;;;2356294;53;20936;-68
2021/03/09 06:30:34;;;;;;;39.42;14.18;;;1.10;59.20;;;;;;2372369;53;20914;-69
2021/03/09 06:33:00;;;;;;;36.85;14.27;;;1.20;59.50;;;;;;2625641;52;20973;-70
2021/03/09 06:35:37;;;;;;;33.83;12.60;;;1.20;59.50;;;;;;2606808;52;21016;-69
2021/03/09 06:38:26;;;;;;;28.58;11.85;;;1.30;59.60;;;;;;2366794;53;20938;-70
2021/03/09 06:41:15;;;;;;;24.87;9.98;;;1.30;59.70;;;;;;2373303;53;20933;-69
2021/03/09 06:44:00;;;;;;;25.90;9.07;;;1.40;59.90;;;;;;2348282;54;20929;-68
2021/03/09 06:46:26;;;;;;;27.23;10.15;;;1.50;60.00;;;;;;2590114;52;21194;-69
2021/03/09 06:49:00;;;;;;;17.05;8.85;;;1.60;60.10;;;;;;2340333;53;20947;-69
2021/03/09 06:51:28;;;;;;;18.35;8.00;;;1.60;60.10;;;;;;2591121;53;20947;-70
2021/03/09 06:54:55;;;;;;;14.68;7.47;;;1.70;60.20;;;;;;2345831;53;21819;-71
2021/03/09 06:57:22;;;;;;;15.40;7.80;;;1.80;60.10;;;;;;2347154;53;20960;-72
2021/03/09 06:59:53;;;;;;;16.87;7.90;;;1.90;60.30;;;;;;2326139;54;20931;-70
2021/03/09 07:02:23;;;;;;;17.23;8.02;;;2.00;60.50;;;;;;2345123;55;20895;-71
2021/03/09 07:08:23;;;;;;;17.77;10.10;;;2.20;60.70;;;;;;2302892;54;21159;-68
2021/03/09 07:10:50;;;;;;;17.73;8.98;;;2.20;60.70;;;;;;2329153;55;20975;-68
2021/03/09 07:13:18;;;;;;;22.17;10.38;;;2.20;60.80;;;;;;2563248;53;20937;-68
2021/03/09 07:15:45;;;;;;;19.00;9.65;;;2.40;61.00;;;;;;2343482;53;20965;-67
2021/03/09 07:18:11;;;;;;;18.85;10.05;;;2.50;61.10;;;;;;2579578;52;20916;-71
2021/03/09 07:20:37;;;;;;;20.58;10.63;;;2.60;61.20;;;;;;2332396;53;21896;-67
2021/03/09 07:23:05;;;;;;;20.70;10.68;;;2.60;61.30;;;;;;2320593;54;20963;-71
2021/03/09 07:25:32;;;;;;;19.73;11.07;;;2.70;61.40;;;;;;2339830;54;20995;-67
2021/03/09 07:28:09;;;;;;;20.35;10.68;;;2.80;61.50;;;;;;2321234;54;20959;-70
2021/03/09 07:30:40;;;;;;;27.45;13.60;;;2.90;61.50;;;;;;2328559;54;21046;-72
2021/03/09 07:33:06;;;;;;;24.45;13.13;;;3.10;61.70;;;;;;2560415;53;20934;-69
2021/03/09 07:35:33;;;;;;;21.70;11.38;;;3.20;61.80;;;;;;2335798;54;21435;-70
2021/03/09 07:37:59;;;;;;;19.50;10.63;;;3.20;61.70;;;;;;2327713;53;21321;-71
2021/03/09 07:40:30;;;;;;;18.87;10.07;;;3.40;61.80;;;;;;2317893;53;20910;-71
2021/03/09 07:42:59;;;;;;;18.12;10.25;;;3.50;61.90;;;;;;2589270;52;20959;-70
2021/03/09 07:45:58;;;;;;;18.15;10.45;;;3.60;61.90;;;;;;2590906;53;21787;-71
2021/03/09 07:48:25;;;;;;;19.67;9.32;;;3.70;61.70;;;;;;2536913;54;21028;-71
2021/03/09 07:50:52;;;;;;;16.45;8.82;;;3.80;62.00;;;;;;2565468;53;20973;-67
2021/03/09 07:53:18;;;;;;;18.35;9.30;;;3.90;62.20;;;;;;2563524;52;21397;-70
2021/03/09 07:55:45;;;;;;;15.60;9.20;;;4.00;62.20;;;;;;2589870;52;20974;-69
2021/03/09 07:58:44;;;;;;;15.05;8.13;;;4.10;62.20;;;;;;2589859;52;20954;-68
2021/03/09 08:01:10;;;;;;;18.80;9.52;;;4.30;62.10;;;;;;2589680;52;20970;-70
2021/03/09 08:03:40;;;;;;;13.95;8.60;;;4.40;62.40;;;;;;2590143;53;21766;-72
2021/03/09 08:06:24;;;;;;;17.52;9.38;;;4.50;62.50;;;;;;2584392;52;20956;-68
2021/03/09 08:08:56;;;;;;;15.35;8.75;;;4.70;62.60;;;;;;2575255;52;20948;-70
2021/03/09 08:11:43;;;;;;;16.40;8.43;;;4.80;62.50;;;;;;2573067;53;20972;-69
2021/03/09 08:14:19;;;;;;;16.98;8.95;;;5.00;62.30;;;;;;2589699;52;20911;-69
2021/03/09 08:16:47;;;;;;;12.73;7.62;;;5.10;62.30;;;;;;2566241;52;21029;-71
2021/03/09 08:19:37;;;;;;;14.10;7.93;;;5.20;62.40;;;;;;2334576;53;21028;-68
2021/03/09 08:22:04;;;;;;;13.77;7.45;;;5.30;62.00;;;;;;2593756;52;21537;-69
2021/03/09 08:26:43;;;;;;;15.40;7.80;;;5.40;62.40;;;;;;2598486;52;20921;-68
2021/03/09 08:29:31;;;;;;;16.23;8.30;;;5.70;61.80;;;;;;2373554;53;21000;-71
2021/03/09 08:32:31;;;;;;;12.05;7.37;;;5.80;62.30;;;;;;2563000;53;20952;-70
2021/03/09 08:38:30;;;;;;;13.35;7.57;;;6.00;62.40;;;;;;2595613;52;20958;-70
2021/03/09 08:41:01;;;;;;;11.70;7.15;;;6.40;62.00;;;;;;2351550;53;21756;-70
2021/03/09 08:43:31;;;;;;;15.13;7.70;;;6.50;62.80;;;;;;2618438;52;21024;-70
2021/03/09 08:45:59;;;;;;;11.57;6.15;;;6.60;62.70;;;;;;2575219;52;20942;-70
2021/03/09 08:48:45;;;;;;;12.35;7.65;;;6.80;62.80;;;;;;2594286;52;21335;-70
2021/03/09 08:51:42;;;;;;;13.50;7.12;;;6.90;62.10;;;;;;2371640;54;20953;-72
2021/03/09 08:54:17;;;;;;;13.30;7.57;;;7.00;61.90;;;;;;2371779;54;20946;-68
2021/03/09 08:56:43;;;;;;;11.98;7.25;;;7.10;62.30;;;;;;2371301;54;20946;-73
2021/03/09 08:59:10;;;;;;;12.15;7.50;;;7.20;62.50;;;;;;2624204;52;20952;-72
2021/03/09 09:01:37;;;;;;;11.75;7.22;;;7.40;62.50;;;;;;2371670;54;20997;-69
2021/03/09 09:04:14;;;;;;;11.75;7.10;;;7.50;62.40;;;;;;2602259;52;20992;-71
2021/03/09 09:06:40;;;;;;;11.50;7.20;;;7.60;62.00;;;;;;2348839;53;20944;-70
2021/03/09 09:09:07;;;;;;;12.48;7.60;;;7.70;62.30;;;;;;2623465;52;20942;-69
2021/03/09 09:11:33;;;;;;;11.57;7.10;;;7.80;62.20;;;;;;2595940;52;21721;-69
2021/03/09 09:14:18;;;;;;;12.13;7.35;;;7.90;62.20;;;;;;2352191;53;21002;-67
2021/03/09 09:16:45;;;;;;;12.50;8.10;;;8.00;61.70;;;;;;2374582;53;20981;-67
2021/03/09 09:19:11;;;;;;;14.32;8.25;;;8.10;61.90;;;;;;2370923;53;20918;-70
2021/03/09 09:21:43;;;;;;;12.52;7.93;;;8.20;61.70;;;;;;2601243;52;20949;-69
2021/03/09 09:24:17;;;;;;;12.73;7.83;;;8.30;61.60;;;;;;2619171;52;21441;-68
2021/03/09 09:26:43;;;;;;;11.88;7.62;;;8.40;61.70;;;;;;2622708;52;21020;-70
2021/03/09 09:29:10;;;;;;;13.50;7.43;;;8.50;62.20;;;;;;2597484;52;20934;-71
2021/03/09 09:31:36;;;;;;;11.32;7.05;;;8.70;62.60;;;;;;2371462;53;20936;-69
2021/03/09 09:41:01;;;;;;;13.32;7.10;;;9.10;62.50;;;;;;2374058;56;21502;-70
2021/03/09 09:43:28;;;;;;;13.60;8.45;;;9.30;63.20;;;;;;2371247;56;21456;-71
2021/03/09 09:46:02;;;;;;;12.40;8.32;;;9.40;62.80;;;;;;2371618;56;21117;-70
2021/03/09 09:48:35;;;;;;;11.88;7.45;;;9.50;62.40;;;;;;2371316;56;21152;-70
2021/03/09 09:51:03;;;;;;;11.95;7.95;;;9.70;62.70;;;;;;2369534;56;21113;-69
2021/03/09 09:53:37;;;;;;;13.18;7.75;;;9.80;62.60;;;;;;2369930;56;21053;-70
2021/03/09 09:56:07;;;;;;;11.75;6.93;;;10.00;61.00;;;;;;2621778;52;21061;-68
2021/03/09 09:58:52;;;;;;;14.30;8.32;;;10.10;61.10;;;;;;2622854;52;21412;-70
2021/03/09 10:01:41;;;;;;;12.77;8.82;;;10.20;60.30;;;;;;2622803;52;21129;-71
2021/03/09 10:04:13;;;;;;;15.63;9.45;;;10.40;61.30;;;;;;2592469;52;21121;-70
2021/03/09 10:06:44;;;;;;;14.00;9.35;;;10.60;61.30;;;;;;2588280;52;21032;-69
2021/03/09 10:09:21;;;;;;;15.43;9.73;;;10.80;61.90;;;;;;2351771;53;21049;-72
2021/03/09 10:11:47;;;;;;;14.73;9.50;;;11.00;61.90;;;;;;2359589;53;20933;-72
2021/03/09 10:14:23;;;;;;;15.07;9.80;;;11.30;62.60;;;;;;2363388;53;21025;-73
2021/03/09 10:16:50;;;;;;;14.30;9.75;;;11.50;62.70;;;;;;2351266;53;21850;-70
2021/03/09 10:19:36;;;;;;;12.98;9.50;;;11.70;62.80;;;;;;2356482;53;21040;-72
2021/03/09 10:22:15;;;;;;;16.25;10.02;;;12.00;61.80;;;;;;2599174;52;20941;-70
2021/03/09 10:25:10;;;;;;;14.57;10.45;;;12.30;61.70;;;;;;2369230;53;21029;-70
2021/03/09 10:27:37;;;;;;;12.57;8.90;;;12.50;61.50;;;;;;2365268;54;20949;-72
2021/03/09 10:30:05;;;;;;;13.27;9.98;;;12.80;63.30;;;;;;2366587;53;20944;-70
2021/03/09 10:32:31;;;;;;;12.85;9.38;;;13.10;62.70;;;;;;2597005;52;21008;-69
2021/03/09 10:35:06;;;;;;;13.62;9.68;;;13.40;62.90;;;;;;2356105;53;21466;-71
2021/03/09 10:37:41;;;;;;;15.35;9.90;;;13.70;62.10;;;;;;2603251;52;21060;-72
2021/03/09 10:40:13;;;;;;;11.98;8.93;;;14.00;62.00;;;;;;2606107;52;21807;-71
2021/03/09 10:42:47;;;;;;;10.77;7.85;;;14.30;62.70;;;;;;2621669;52;20954;-69
2021/03/09 10:45:39;;;;;;;10.88;7.60;;;14.60;61.90;;;;;;2352053;53;20925;-69
2021/03/09 10:48:05;;;;;;;12.93;7.68;;;14.90;60.80;;;;;;2622908;52;21073;-73
2021/03/09 10:50:52;;;;;;;11.27;8.35;;;15.10;62.00;;;;;;2358108;53;21072;-70
2021/03/09 10:53:18;;;;;;;11.98;8.93;;;15.40;59.60;;;;;;2362222;53;20972;-71
2021/03/09 10:55:45;;;;;;;9.48;7.32;;;15.60;60.60;;;;;;2606291;52;21493;-73
2021/03/09 10:58:12;;;;;;;9.70;7.28;;;15.70;60.50;;;;;;2613928;52;20976;-69
2021/03/09 11:00:42;;;;;;;12.63;8.07;;;15.90;60.20;;;;;;2589438;52;21040;-68
2021/03/09 11:03:11;;;;;;;12.65;8.18;;;16.00;59.70;;;;;;2613037;52;21585;-71
2021/03/09 11:05:39;;;;;;;9.68;7.22;;;16.10;59.10;;;;;;2370984;53;21081;-68
2021/03/09 11:08:05;;;;;;;13.07;7.35;;;16.10;58.40;;;;;;2370924;53;21029;-73
2021/03/09 11:10:34;;;;;;;9.98;7.25;;;16.10;58.10;;;;;;2352261;53;20944;-70
2021/03/09 11:13:01;;;;;;;10.48;7.20;;;16.10;57.70;;;;;;2369206;54;21028;-73
2021/03/09 11:15:32;;;;;;;10.38;7.37;;;16.10;57.30;;;;;;2602782;52;21454;-71
2021/03/09 11:17:59;;;;;;;10.75;7.03;;;16.20;57.00;;;;;;2320837;54;21081;-70
2021/03/09 11:20:25;;;;;;;9.05;6.45;;;16.00;56.60;;;;;;2337782;53;20949;-72
2021/03/09 11:22:52;;;;;;;9.88;6.50;;;16.00;56.30;;;;;;2577926;53;20988;-70
2021/03/09 11:25:22;;;;;;;8.60;6.32;;;15.90;55.90;;;;;;2337817;54;21027;-71
2021/03/09 11:27:49;;;;;;;9.82;6.50;;;16.00;55.80;;;;;;2581779;53;21445;-72
2021/03/09 11:30:17;;;;;;;9.65;6.32;;;15.90;56.00;;;;;;2346334;53;21478;-70
2021/03/09 11:32:44;;;;;;;8.88;6.35;;;15.90;55.90;;;;;;2320279;54;21051;-69
2021/03/09 11:35:12;;;;;;;8.90;6.25;;;15.90;55.70;;;;;;2330749;54;21056;-71
2021/03/09 11:37:38;;;;;;;9.93;6.72;;;15.90;55.50;;;;;;2582113;52;21060;-71
2021/03/09 11:40:08;;;;;;;8.85;5.90;;;15.80;55.50;;;;;;2336139;53;21027;-70
2021/03/09 11:42:37;;;;;;;;;;;15.80;55.50;;;;;;2321032;55;20971;-70
2021/03/09 11:45:11;;;;;;;9.50;6.22;;;15.80;54.80;;;;;;2583095;52;20058;-72
2021/03/09 11:47:37;;;;;;;8.30;6.28;;;15.70;56.40;;;;;;2588668;52;20983;-70
2021/03/09 11:50:07;;;;;;;9.52;6.37;;;15.70;55.40;;;;;;2571506;52;20999;-70
2021/03/09 11:52:38;;;;;;;10.27;6.65;;;15.70;55.00;;;;;;2328845;53;21688;-73
2021/03/09 11:55:19;;;;;;;9.23;6.18;;;15.60;55.20;;;;;;2595002;52;21049;-71
2021/03/09 11:57:51;;;;;;;9.82;6.78;;;15.60;54.10;;;;;;2372053;54;20965;-72
2021/03/09 12:00:21;;;;;;;11.18;7.35;;;15.50;54.80;;;;;;2355333;53;21044;-69
2021/03/09 12:02:50;;;;;;;10.20;6.87;;;15.50;54.90;;;;;;2354323;53;21797;-71
2021/03/09 12:05:18;;;;;;;10.73;7.65;;;15.60;55.40;;;;;;2362313;53;20989;-70
2021/03/09 12:07:45;;;;;;;10.40;7.45;;;15.60;55.50;;;;;;2582664;52;20981;-71
2021/03/09 12:10:13;;;;;;;10.35;7.18;;;15.70;55.80;;;;;;2624850;52;21363;-73
2021/03/09 12:12:44;;;;;;;11.45;7.68;;;15.80;55.80;;;;;;2595020;52;21009;-71
2021/03/09 12:15:20;;;;;;;10.40;7.32;;;15.80;55.50;;;;;;2556822;53;21452;-74
2021/03/09 12:17:46;;;;;;;9.15;6.82;;;15.90;54.50;;;;;;2317805;55;21963;-71
2021/03/09 12:20:14;;;;;;;8.32;6.25;;;15.90;55.00;;;;;;2341946;53;20966;-70
2021/03/09 12:22:40;;;;;;;9.65;6.75;;;15.90;54.80;;;;;;2325157;53;21041;-71
2021/03/09 12:25:08;;;;;;;9.82;7.07;;;15.90;54.90;;;;;;2330865;54;21455;-69
2021/03/09 12:27:36;;;;;;;11.93;6.78;;;15.90;54.90;;;;;;2567898;52;21037;-69
2021/03/09 12:30:07;;;;;;;9.88;6.78;;;15.90;55.10;;;;;;2338935;53;21306;-71
2021/03/09 12:32:34;;;;;;;8.93;5.85;;;16.00;54.90;;;;;;2582933;53;20989;-68
2021/03/09 12:35:04;;;;;;;10.32;6.40;;;16.10;55.30;;;;;;2575045;53;21016;-69
2021/03/09 12:37:33;;;;;;;9.05;6.55;;;16.20;55.50;;;;;;2344285;53;21065;-76
2021/03/09 12:40:00;;;;;;;10.07;6.93;;;16.30;55.50;;;;;;2594108;52;20985;-66
2021/03/09 12:42:27;;;;;;;10.05;7.32;;;16.30;55.40;;;;;;2334916;53;21493;-67
2021/03/09 12:44:57;;;;;;;9.27;6.87;;;16.40;55.30;;;;;;2570219;53;20962;-66
2021/03/09 12:47:24;;;;;;;9.40;7.55;;;16.50;55.10;;;;;;2546182;53;21409;-66
2021/03/09 12:49:58;;;;;;;10.57;6.97;;;16.60;54.90;;;;;;2555058;53;20992;-66
2021/03/09 12:52:28;;;;;;;10.93;6.93;;;16.70;54.10;;;;;;2572921;53;20961;-68
2021/03/09 12:54:55;;;;;;;10.05;6.70;;;16.80;54.80;;;;;;2586364;52;21030;-68
2021/03/09 12:57:24;;;;;;;8.40;6.18;;;16.90;54.50;;;;;;2355186;53;20968;-69
2021/03/09 12:59:54;;;;;;;8.32;6.37;;;16.90;54.40;;;;;;2326641;53;21006;-69
2021/03/09 13:02:21;;;;;;;10.55;7.40;;;17.00;54.20;;;;;;2600811;52;20977;-68
2021/03/09 13:04:48;;;;;;;10.52;7.00;;;17.10;54.40;;;;;;2351315;53;20944;-67
2021/03/09 13:07:14;;;;;;;11.75;6.97;;;17.10;54.00;;;;;;2622540;52;21475;-68
2021/03/09 13:09:41;;;;;;;9.30;6.53;;;17.20;54.00;;;;;;2622893;52;21758;-67
2021/03/09 13:12:10;;;;;;;9.13;6.60;;;17.20;53.80;;;;;;2623412;52;20957;-67
2021/03/09 13:14:39;;;;;;;8.20;6.35;;;17.30;53.70;;;;;;2355094;53;20980;-70
2021/03/09 13:17:14;;;;;;;10.63;6.60;;;17.30;53.10;;;;;;2363965;53;21017;-69
2021/03/09 13:19:41;;;;;;;9.50;6.53;;;17.30;53.50;;;;;;2354322;53;21003;-67
2021/03/09 13:22:13;;;;;;;9.13;6.80;;;17.30;53.30;;;;;;2600083;52;20939;-68
2021/03/09 13:24:40;;;;;;;12.63;7.47;;;17.30;52.90;;;;;;2369806;53;21411;-68
2021/03/09 13:27:08;;;;;;;10.40;7.05;;;17.30;52.70;;;;;;2345650;53;21590;-66
2021/03/09 13:29:36;;;;;;;10.30;6.35;;;17.30;52.40;;;;;;2600083;52;21552;-70
2021/03/09 13:32:03;;;;;;;9.13;6.53;;;17.20;51.80;;;;;;2356673;53;21004;-70
2021/03/09 13:34:32;;;;;;;9.10;6.82;;;17.10;51.70;;;;;;2345135;54;20926;-69
2021/03/09 13:36:59;;;;;;;11.93;7.12;;;17.10;51.60;;;;;;2623728;52;21041;-68
2021/03/09 13:39:28;;;;;;;10.18;6.28;;;17.00;51.20;;;;;;2622323;52;20953;-67
2021/03/09 13:41:57;;;;;;;10.25;6.68;;;16.90;50.90;;;;;;2362053;53;22351;-66
2021/03/09 13:44:24;;;;;;;9.60;6.28;;;16.80;50.80;;;;;;2604110;52;21446;-68
2021/03/09 13:46:58;;;;;;;10.40;6.80;;;16.70;50.70;;;;;;2350321;53;21028;-67
2021/03/09 13:49:30;;;;;;;10.27;7.10;;;16.60;50.70;;;;;;2602534;52;21832;-67
2021/03/09 13:52:07;;;;;;;10.65;7.53;;;16.50;50.70;;;;;;2358711;53;21496;-69
2021/03/09 13:54:40;;;;;;;9.55;6.85;;;16.40;49.60;;;;;;2350147;53;21402;-69
2021/03/09 13:57:12;;;;;;;10.02;7.12;;;16.30;50.10;;;;;;2361529;53;21052;-67
2021/03/09 13:59:42;;;;;;;10.55;6.72;;;16.20;50.20;;;;;;2594221;52;21564;-68
2021/03/09 14:02:14;;;;;;;10.93;7.43;;;16.10;50.10;;;;;;2354665;53;20925;-67
2021/03/09 14:04:44;;;;;;;10.82;7.10;;;16.10;50.10;;;;;;2623280;52;20962;-67
2021/03/09 14:07:12;;;;;;;10.30;7.43;;;16.00;49.90;;;;;;2593837;52;20972;-67
2021/03/09 14:09:40;;;;;;;10.60;7.15;;;15.90;49.70;;;;;;2354065;53;20981;-67
2021/03/09 14:12:07;;;;;;;11.02;7.35;;;15.80;49.80;;;;;;2623023;52;20993;-70
2021/03/09 14:14:34;;;;;;;9.18;6.60;;;15.70;49.80;;;;;;2328103;53;21599;-68
2021/03/09 14:17:06;;;;;;;11.23;6.82;;;15.70;49.80;;;;;;2329541;53;21564;-67
2021/03/09 14:19:33;;;;;;;11.20;7.50;;;15.60;49.50;;;;;;2341072;53;20952;-69
2021/03/09 14:21:59;;;;;;;9.93;7.32;;;15.50;49.60;;;;;;2591796;52;21019;-66
2021/03/09 14:24:26;;;;;;;11.73;8.02;;;15.50;49.60;;;;;;2345104;54;20944;-67
2021/03/09 14:26:56;;;;;;;11.90;6.87;;;15.40;49.60;;;;;;2340313;53;21550;-68
2021/03/09 14:29:22;;;;;;;9.98;6.90;;;15.30;49.60;;;;;;2344058;53;21536;-66
2021/03/09 14:31:49;;;;;;;11.48;7.43;;;15.30;49.70;;;;;;2326194;54;20925;-68
2021/03/09 14:34:15;;;;;;;12.90;7.60;;;15.30;49.70;;;;;;2586616;52;20965;-67
2021/03/09 14:36:55;;;;;;;10.77;6.93;;;15.20;49.60;;;;;;2583303;52;20941;-66
2021/03/09 14:39:21;;;;;;;9.30;6.68;;;15.10;49.60;;;;;;2345489;54;20949;-67
2021/03/09 14:41:48;;;;;;;9.73;7.12;;;15.10;49.70;;;;;;2328787;53;20955;-66
2021/03/09 14:44:14;;;;;;;13.07;7.40;;;15.00;49.50;;;;;;2359091;53;20980;-69
2021/03/09 14:46:40;;;;;;;10.88;7.07;;;15.00;49.70;;;;;;2602162;52;21447;-67
2021/03/09 14:49:07;;;;;;;10.43;6.70;;;14.90;49.80;;;;;;2370321;53;20969;-66
2021/03/09 14:51:33;;;;;;;11.70;7.10;;;14.90;49.80;;;;;;2364526;53;20953;-67
2021/03/09 14:54:00;;;;;;;9.60;6.65;;;14.80;49.80;;;;;;2591996;52;21022;-67
2021/03/09 14:56:27;;;;;;;10.90;7.10;;;14.80;50.00;;;;;;2370540;53;20985;-68
2021/03/09 14:58:53;;;;;;;9.75;7.15;;;14.80;50.00;;;;;;2360556;53;21000;-66
2021/03/09 15:01:20;;;;;;;9.60;6.82;;;14.80;50.00;;;;;;2362178;53;20982;-67
2021/03/09 15:03:46;;;;;;;11.40;7.15;;;14.80;50.10;;;;;;2623256;52;20922;-68
2021/03/09 15:06:13;;;;;;;12.20;7.45;;;14.80;50.10;;;;;;2607525;52;21064;-68
2021/03/09 15:08:39;;;;;;;10.77;7.20;;;14.80;50.30;;;;;;2350926;53;21068;-67
2021/03/09 15:11:05;;;;;;;9.77;6.50;;;14.80;50.10;;;;;;2367608;53;21021;-67
2021/03/09 15:13:32;;;;;;;9.52;6.57;;;14.80;49.60;;;;;;2599213;52;21036;-66